createdAt,value
2023-03-29T00:01:42.563Z,101278.34
2023-03-29T00:04:48.963Z,101268.84
2023-03-29T00:07:54.926Z,101272.03
2023-03-29T00:10:59.544Z,101269.25
2023-03-29T00:14:02.718Z,101272.88
2023-03-29T00:20:10.471Z,101264.16
2023-03-29T00:23:13.493Z,101272.91
2023-03-29T00:26:16.634Z,101268.53
2023-03-29T00:29:19.477Z,101275.75
2023-03-29T00:32:22.811Z,101273.53
2023-03-29T00:35:25.901Z,101273.66
2023-03-29T00:38:28.843Z,101265.25
2023-03-29T00:41:31.921Z,101269.19
2023-03-29T00:45:12.232Z,101264.03
2023-03-29T00:48:21.825Z,101273.72
2023-03-29T00:51:28.637Z,101266.00
2023-03-29T00:54:33.135Z,101269.66
2023-03-29T00:57:38.532Z,101266.16
2023-03-29T01:00:47.649Z,101259.34
2023-03-29T01:03:54.641Z,101258.50
2023-03-29T01:07:01.470Z,101252.75
2023-03-29T01:10:10.641Z,101246.03
2023-03-29T01:13:28.400Z,101250.22
2023-03-29T01:16:33.306Z,101252.12
2023-03-29T01:19:44.681Z,101249.19
2023-03-29T01:23:27.545Z,101246.59
2023-03-29T01:26:37.561Z,101241.16
2023-03-29T01:29:48.278Z,101244.69
2023-03-29T01:33:06.406Z,101246.72
2023-03-29T01:36:20.269Z,101237.31
2023-03-29T01:39:23.115Z,101241.50
2023-03-29T01:42:39.009Z,101241.69
2023-03-29T01:45:59.426Z,101245.34
2023-03-29T01:49:06.536Z,101246.19
2023-03-29T01:52:23.512Z,101234.22
2023-03-29T01:55:31.960Z,101240.87
2023-03-29T01:58:39.114Z,101237.31
2023-03-29T02:01:49.459Z,101234.88
2023-03-29T02:04:54.702Z,101235.03
2023-03-29T02:08:00.392Z,101234.22
2023-03-29T02:11:04.777Z,101232.59
2023-03-29T02:14:07.975Z,101224.31
2023-03-29T02:17:19.225Z,101217.38
2023-03-29T02:20:29.234Z,101227.03
2023-03-29T02:23:41.529Z,101221.84
2023-03-29T02:26:44.495Z,101214.19
2023-03-29T02:29:48.103Z,101219.59
2023-03-29T02:33:11.157Z,101213.28
2023-03-29T02:36:50.768Z,101216.56
2023-03-29T02:39:54.117Z,101216.53
2023-03-29T02:42:57.929Z,101214.47
2023-03-29T02:46:01.217Z,101214.62
2023-03-29T02:49:05.374Z,101216.69
2023-03-29T02:52:16.255Z,101213.31
2023-03-29T02:55:20.472Z,101210.59
2023-03-29T02:58:26.815Z,101196.88
2023-03-29T03:01:29.660Z,101211.84
2023-03-29T03:04:35.831Z,101207.41
2023-03-29T03:07:40.764Z,101208.03
2023-03-29T03:10:43.700Z,101204.81
2023-03-29T03:13:46.404Z,101211.66
2023-03-29T03:16:50.080Z,101211.94
2023-03-29T03:19:53.445Z,101198.69
2023-03-29T03:22:57.784Z,101195.94
2023-03-29T03:26:00.722Z,101201.66
2023-03-29T03:29:03.626Z,101201.41
2023-03-29T03:32:06.858Z,101207.28
2023-03-29T03:35:10.190Z,101214.50
2023-03-29T03:38:13.288Z,101216.31
2023-03-29T03:41:16.199Z,101219.72
2023-03-29T03:44:19.866Z,101225.53
2023-03-29T03:47:22.929Z,101225.53
2023-03-29T03:50:25.852Z,101230.75
2023-03-29T03:53:32.429Z,101234.38
2023-03-29T03:56:35.370Z,101246.34
2023-03-29T03:59:39.179Z,101240.31
2023-03-29T04:02:42.106Z,101244.16
2023-03-29T04:05:46.528Z,101257.63
2023-03-29T04:08:49.303Z,101253.75
2023-03-29T04:11:53.318Z,101239.94
2023-03-29T04:14:56.992Z,101238.66
2023-03-29T04:18:00.902Z,101231.53
2023-03-29T04:21:04.446Z,101233.09
2023-03-29T04:24:07.960Z,101226.44
2023-03-29T04:27:11.068Z,101219.78
2023-03-29T04:30:14.168Z,101225.47
2023-03-29T04:33:17.647Z,101221.88
2023-03-29T04:36:21.758Z,101222.00
2023-03-29T04:39:32.240Z,101228.44
2023-03-29T04:42:44.104Z,101221.72
2023-03-29T04:45:49.758Z,101219.22
2023-03-29T04:48:53.077Z,101230.59
2023-03-29T04:51:56.225Z,101224.19
2023-03-29T04:55:00.507Z,101221.47
2023-03-29T04:58:03.421Z,101219.69
2023-03-29T05:01:07.875Z,101223.87
2023-03-29T05:04:12.658Z,101218.47
2023-03-29T05:07:18.166Z,101224.47
2023-03-29T05:10:21.349Z,101226.03
2023-03-29T05:13:24.426Z,101222.19
2023-03-29T05:16:31.113Z,101223.59
2023-03-29T05:19:34.102Z,101220.63
2023-03-29T05:22:38.573Z,101218.16
2023-03-29T05:25:41.839Z,101216.78
2023-03-29T05:28:44.896Z,101208.56
2023-03-29T05:31:47.923Z,101205.44
2023-03-29T05:34:50.879Z,101212.50
2023-03-29T05:37:54.093Z,101209.38
2023-03-29T05:40:57.931Z,101207.91
2023-03-29T05:44:01.001Z,101217.31
2023-03-29T05:47:03.758Z,101212.97
2023-03-29T05:50:09.963Z,101211.88
2023-03-29T05:53:12.821Z,101207.50
2023-03-29T05:56:16.664Z,101212.66
2023-03-29T05:59:19.969Z,101209.16
2023-03-29T06:02:23.597Z,101219.25
2023-03-29T06:05:26.777Z,101225.31
2023-03-29T06:08:35.295Z,101219.19
2023-03-29T06:11:38.326Z,101226.16
2023-03-29T06:14:41.253Z,101229.44
2023-03-29T06:17:47.557Z,101219.31
2023-03-29T06:20:51.972Z,101219.87
2023-03-29T06:23:54.819Z,101222.03
2023-03-29T06:26:57.680Z,101224.50
2023-03-29T06:30:01.362Z,101237.19
2023-03-29T06:33:07.286Z,101236.75
2023-03-29T06:36:11.940Z,101241.59
2023-03-29T06:39:14.993Z,101241.31
2023-03-29T06:42:21.496Z,101234.16
2023-03-29T06:45:27.478Z,101224.69
2023-03-29T06:48:32.243Z,101224.38
2023-03-29T06:51:35.377Z,101230.84
2023-03-29T06:54:39.226Z,101240.91
2023-03-29T06:57:42.811Z,101243.13
2023-03-29T07:00:46.048Z,101237.34
2023-03-29T07:03:49.487Z,101230.37
2023-03-29T07:07:01.819Z,101237.59
2023-03-29T07:10:05.769Z,101243.78
2023-03-29T07:13:14.644Z,101247.53
2023-03-29T07:16:19.478Z,101238.94
2023-03-29T07:19:24.536Z,101240.72
2023-03-29T07:22:27.397Z,101246.84
2023-03-29T07:25:31.534Z,101246.44
2023-03-29T07:28:34.696Z,101241.88
2023-03-29T07:31:41.091Z,101229.81
2023-03-29T07:34:44.523Z,101255.03
2023-03-29T07:37:50.975Z,101244.28
2023-03-29T07:40:54.649Z,101253.53
2023-03-29T07:43:59.240Z,101259.41
2023-03-29T07:47:02.601Z,101257.03
2023-03-29T07:50:07.770Z,101263.59
2023-03-29T07:53:14.238Z,101259.91
2023-03-29T07:56:20.926Z,101261.22
2023-03-29T07:59:23.974Z,101261.09
2023-03-29T08:02:27.558Z,101249.41
2023-03-29T08:05:40.632Z,101247.28
2023-03-29T08:08:45.125Z,101239.03
2023-03-29T08:11:54.167Z,101240.66
2023-03-29T08:14:59.896Z,101243.41
2023-03-29T08:18:02.741Z,101231.72
2023-03-29T08:21:08.878Z,101229.34
2023-03-29T08:24:12.135Z,101227.22
2023-03-29T08:27:14.979Z,101232.31
2023-03-29T08:30:18.397Z,101235.44
2023-03-29T08:33:21.452Z,101230.94
2023-03-29T08:36:24.429Z,101219.87
2023-03-29T08:39:27.958Z,101214.94
2023-03-29T08:42:41.365Z,101210.16
2023-03-29T08:46:14.096Z,101212.28
2023-03-29T08:49:18.150Z,101214.81
2023-03-29T08:52:31.806Z,101200.47
2023-03-29T08:55:53.708Z,101199.59
2023-03-29T08:58:58.117Z,101196.13
2023-03-29T09:02:05.279Z,101186.88
2023-03-29T09:05:14.932Z,101183.28
2023-03-29T09:08:19.968Z,101186.63
2023-03-29T09:11:24.652Z,101179.72
2023-03-29T09:14:36.385Z,101178.03
2023-03-29T09:17:51.345Z,101182.16
2023-03-29T09:20:55.544Z,101176.81
2023-03-29T09:24:17.850Z,101174.59
2023-03-29T09:27:32.569Z,101154.97
2023-03-29T09:30:41.906Z,101160.00
2023-03-29T09:33:55.479Z,101147.53
2023-03-29T09:37:01.334Z,101161.31
2023-03-29T09:40:18.878Z,101161.34
2023-03-29T09:43:42.231Z,101155.03
2023-03-29T09:47:08.189Z,101150.38
2023-03-29T09:50:38.204Z,101147.66
2023-03-29T09:53:41.263Z,101145.78
2023-03-29T09:56:44.335Z,101146.09
2023-03-29T09:59:50.165Z,101151.31
2023-03-29T10:02:54.837Z,101139.13
2023-03-29T10:06:03.864Z,101141.09
2023-03-29T10:09:15.295Z,101137.50
2023-03-29T10:12:18.177Z,101126.19
2023-03-29T10:15:29.703Z,101133.91
2023-03-29T10:18:43.321Z,101129.41
2023-03-29T10:21:53.125Z,101112.97
2023-03-29T10:24:57.409Z,101126.09
2023-03-29T10:28:06.978Z,101122.50
2023-03-29T10:31:18.720Z,101110.88
2023-03-29T10:34:26.320Z,101113.28
2023-03-29T10:37:32.392Z,101101.44
2023-03-29T10:40:43.232Z,101105.72
2023-03-29T10:43:51.053Z,101097.09
2023-03-29T10:46:54.014Z,101093.16
2023-03-29T10:50:02.047Z,101092.56
2023-03-29T10:53:26.724Z,101085.88
2023-03-29T10:56:40.579Z,101086.22
2023-03-29T10:59:54.281Z,101089.78
2023-03-29T11:03:36.644Z,101079.41
2023-03-29T11:06:47.630Z,101088.56
2023-03-29T11:10:04.429Z,101080.03
2023-03-29T11:13:25.226Z,101069.81
2023-03-29T11:16:28.271Z,101063.38
2023-03-29T11:19:54.856Z,101052.78
2023-03-29T11:23:20.464Z,101054.84
2023-03-29T11:26:27.430Z,101045.50
2023-03-29T11:30:03.710Z,101048.19
2023-03-29T11:33:19.249Z,101033.00
2023-03-29T11:36:45.993Z,101035.97
2023-03-29T11:40:10.782Z,101033.47
2023-03-29T11:43:19.862Z,101033.19
2023-03-29T11:46:36.006Z,101015.47
2023-03-29T11:49:53.229Z,101017.97
2023-03-29T11:53:03.643Z,101013.22
2023-03-29T11:56:11.229Z,101005.06
2023-03-29T11:59:22.663Z,101012.19
2023-03-29T12:02:48.316Z,101002.13
2023-03-29T12:05:56.848Z,100998.03
2023-03-29T12:09:20.242Z,100991.22
2023-03-29T12:12:46.497Z,100984.31
2023-03-29T12:16:13.911Z,100988.00
2023-03-29T12:19:32.227Z,100973.63
2023-03-29T12:22:35.262Z,100987.75
2023-03-29T12:25:54.518Z,101011.66
2023-03-29T12:29:12.414Z,100987.91
2023-03-29T12:32:20.560Z,100984.78
2023-03-29T12:35:34.457Z,100968.56
2023-03-29T12:38:38.023Z,100969.41
2023-03-29T12:41:49.047Z,100981.16
2023-03-29T12:44:58.763Z,100968.56
2023-03-29T12:48:05.274Z,100960.88
2023-03-29T12:51:13.038Z,100969.84
2023-03-29T12:54:19.360Z,100970.28
2023-03-29T12:57:40.093Z,100972.75
2023-03-29T13:00:45.242Z,100969.91
2023-03-29T13:03:50.202Z,100961.25
2023-03-29T13:07:03.343Z,100963.09
2023-03-29T13:10:10.709Z,100957.19
2023-03-29T13:13:36.932Z,100950.91
2023-03-29T13:16:41.346Z,100955.22
2023-03-29T13:20:16.525Z,100955.03
2023-03-29T13:23:34.521Z,100916.03
2023-03-29T13:27:02.667Z,100940.59
2023-03-29T13:30:38.167Z,100935.63
2023-03-29T13:34:32.095Z,100950.06
2023-03-29T13:37:53.249Z,100944.59
2023-03-29T13:41:12.452Z,100931.34
2023-03-29T13:44:27.392Z,100939.00
2023-03-29T13:47:33.312Z,100953.62
2023-03-29T13:50:39.315Z,100940.03
2023-03-29T13:53:48.845Z,100927.53
2023-03-29T13:57:08.181Z,100923.28
2023-03-29T14:00:18.477Z,100923.69
2023-03-29T14:03:30.195Z,100929.00
2023-03-29T14:06:36.801Z,100929.00
2023-03-29T14:09:44.180Z,100930.78
2023-03-29T14:12:47.829Z,100937.69
2023-03-29T14:16:04.973Z,100937.34
2023-03-29T14:19:17.710Z,100924.00
2023-03-29T14:22:21.771Z,100924.66
2023-03-29T14:25:24.894Z,100931.50
2023-03-29T14:28:29.256Z,100930.72
2023-03-29T14:31:35.706Z,100911.94
2023-03-29T14:34:40.870Z,100931.41
2023-03-29T14:37:44.508Z,100917.19
2023-03-29T14:40:47.356Z,100909.28
2023-03-29T14:43:50.653Z,100922.16
2023-03-29T14:46:55.277Z,100923.66
2023-03-29T14:50:01.038Z,100921.75
2023-03-29T14:53:04.296Z,100925.53
2023-03-29T14:56:12.003Z,100930.28
2023-03-29T14:59:37.987Z,100919.72
2023-03-29T15:02:50.143Z,100923.03
2023-03-29T15:05:58.726Z,100920.03
2023-03-29T15:09:06.444Z,100925.31
2023-03-29T15:12:15.697Z,100912.56
2023-03-29T15:15:19.070Z,100913.50
2023-03-29T15:18:27.321Z,100909.78
2023-03-29T15:21:33.726Z,100907.31
2023-03-29T15:24:44.518Z,100889.44
2023-03-29T15:27:51.520Z,100903.41
2023-03-29T15:31:08.225Z,100893.16
2023-03-29T15:34:14.554Z,100878.69
2023-03-29T15:37:17.494Z,100882.22
2023-03-29T15:40:26.779Z,100879.66
2023-03-29T15:43:31.157Z,100880.63
2023-03-29T15:46:34.023Z,100880.72
2023-03-29T15:49:37.114Z,100878.00
2023-03-29T15:52:40.053Z,100881.72
2023-03-29T15:55:45.792Z,100862.28
2023-03-29T15:58:49.430Z,100884.19
2023-03-29T16:01:54.709Z,100872.09
2023-03-29T16:04:57.662Z,100878.72
2023-03-29T16:08:00.665Z,100886.75
2023-03-29T16:11:05.260Z,100884.22
2023-03-29T16:14:25.483Z,100882.59
2023-03-29T16:17:28.317Z,100892.00
2023-03-29T16:20:31.772Z,100886.62
2023-03-29T16:23:34.725Z,100876.56
2023-03-29T16:26:39.420Z,100873.25
2023-03-29T16:29:42.265Z,100859.12
2023-03-29T16:32:45.197Z,100855.81
2023-03-29T16:35:48.000Z,100855.03
2023-03-29T16:38:51.976Z,100839.56
2023-03-29T16:41:54.898Z,100842.31
2023-03-29T16:44:57.678Z,100833.37
2023-03-29T16:48:00.508Z,100833.09
2023-03-29T16:51:04.795Z,100839.84
2023-03-29T16:54:07.654Z,100841.81
2023-03-29T16:57:10.622Z,100837.66
2023-03-29T17:00:16.142Z,100844.84
2023-03-29T17:03:19.517Z,100848.75
2023-03-29T17:06:22.337Z,100845.28
2023-03-29T17:09:26.199Z,100839.22
2023-03-29T17:12:31.536Z,100845.53
2023-03-29T17:15:37.419Z,100841.53
2023-03-29T17:18:42.471Z,100836.56
2023-03-29T17:21:45.676Z,100842.09
2023-03-29T17:24:48.533Z,100840.19
2023-03-29T17:27:54.648Z,100839.63
2023-03-29T17:30:57.552Z,100841.00
2023-03-29T17:34:00.634Z,100837.69
2023-03-29T17:37:03.954Z,100840.34
2023-03-29T17:40:14.303Z,100845.53
2023-03-29T17:43:17.349Z,100843.87
2023-03-29T17:46:23.165Z,100844.44
2023-03-29T17:49:26.289Z,100836.69
2023-03-29T17:55:32.523Z,100855.06
2023-03-29T17:58:36.274Z,100852.44
2023-03-29T18:01:39.520Z,100854.09
2023-03-29T18:04:42.490Z,100860.03
2023-03-29T18:07:45.403Z,100857.13
2023-03-29T18:10:49.577Z,100872.03
2023-03-29T18:13:53.726Z,100867.63
2023-03-29T18:16:57.386Z,100869.53
2023-03-29T18:20:00.896Z,100872.31
2023-03-29T18:23:03.926Z,100870.78
2023-03-29T18:26:09.205Z,100870.78
2023-03-29T18:29:13.083Z,100880.72
2023-03-29T18:32:16.941Z,100881.25
2023-03-29T18:35:20.342Z,100884.66
2023-03-29T18:38:24.063Z,100884.22
2023-03-29T18:41:27.865Z,100882.13
2023-03-29T18:44:31.213Z,100889.69
2023-03-29T18:47:35.011Z,100888.31
2023-03-29T18:50:39.032Z,100885.09
2023-03-29T18:53:43.860Z,100881.63
2023-03-29T18:56:47.294Z,100880.63
2023-03-29T18:59:50.791Z,100874.00
2023-03-29T19:02:54.073Z,100871.66
2023-03-29T19:05:57.467Z,100875.47
2023-03-29T19:09:05.483Z,100872.97
2023-03-29T19:12:08.730Z,100868.81
2023-03-29T19:15:14.494Z,100874.84
2023-03-29T19:18:19.145Z,100881.31
2023-03-29T19:21:22.584Z,100874.53
2023-03-29T19:24:25.570Z,100875.88
2023-03-29T19:27:28.628Z,100877.25
2023-03-29T19:30:31.825Z,100880.06
2023-03-29T19:33:35.239Z,100877.56
2023-03-29T19:36:38.909Z,100869.09
2023-03-29T19:39:42.117Z,100873.97
2023-03-29T19:42:45.098Z,100862.91
2023-03-29T19:45:49.890Z,100863.69
2023-03-29T19:48:55.820Z,100865.34
2023-03-29T19:51:58.875Z,100857.25
2023-03-29T19:55:04.212Z,100859.84
2023-03-29T19:58:09.275Z,100858.19
2023-03-29T20:01:12.786Z,100855.13
2023-03-29T20:04:19.176Z,100848.53
2023-03-29T20:07:22.236Z,100843.22
2023-03-29T20:10:25.012Z,100843.34
2023-03-29T20:13:37.451Z,100834.38
2023-03-29T20:16:43.665Z,100836.44
2023-03-29T20:19:46.745Z,100840.25
2023-03-29T20:22:50.281Z,100847.28
2023-03-29T20:25:53.697Z,100846.94
2023-03-29T20:28:56.770Z,100848.75
2023-03-29T20:31:59.657Z,100842.09
2023-03-29T20:35:02.635Z,100842.53
2023-03-29T20:38:08.468Z,100839.22
2023-03-29T20:41:11.328Z,100844.22
2023-03-29T20:44:17.002Z,100845.75
2023-03-29T20:47:20.205Z,100834.59
2023-03-29T20:50:30.441Z,100826.87
2023-03-29T20:53:34.599Z,100821.66
2023-03-29T20:56:42.618Z,100821.44
2023-03-29T20:59:46.527Z,100822.16
2023-03-29T21:02:49.485Z,100822.28
2023-03-29T21:05:55.872Z,100833.91
2023-03-29T21:08:58.989Z,100827.72
2023-03-29T21:12:02.395Z,100827.50
2023-03-29T21:15:05.676Z,100829.16
2023-03-29T21:18:09.117Z,100821.19
2023-03-29T21:21:12.349Z,100820.37
2023-03-29T21:24:15.405Z,100810.63
2023-03-29T21:27:21.186Z,100820.13
2023-03-29T21:30:24.050Z,100822.84
2023-03-29T21:33:26.752Z,100816.56
2023-03-29T21:36:29.708Z,100817.28
2023-03-29T21:39:32.663Z,100818.94
2023-03-29T21:42:35.760Z,100822.63
2023-03-29T21:45:38.535Z,100820.72
2023-03-29T21:48:42.143Z,100826.41
2023-03-29T21:51:48.125Z,100826.19
2023-03-29T21:54:51.013Z,100814.31
2023-03-29T21:57:53.900Z,100831.97
2023-03-29T22:01:05.490Z,100821.53
2023-03-29T22:04:08.934Z,100820.47
2023-03-29T22:07:12.640Z,100820.72
2023-03-29T22:10:15.840Z,100819.16
2023-03-29T22:13:18.756Z,100823.09
2023-03-29T22:16:25.880Z,100815.50
2023-03-29T22:19:32.129Z,100816.09
2023-03-29T22:22:35.236Z,100819.19
2023-03-29T22:25:38.207Z,100823.28
2023-03-29T22:28:41.939Z,100830.28
2023-03-29T22:31:44.709Z,100824.81
2023-03-29T22:34:53.604Z,100808.44
2023-03-29T22:37:56.492Z,100809.97
2023-03-29T22:40:59.331Z,100803.19
2023-03-29T22:44:05.173Z,100798.53
2023-03-29T22:47:11.223Z,100782.53
2023-03-29T22:50:17.490Z,100796.63
2023-03-29T22:53:20.185Z,100796.28
2023-03-29T22:56:23.502Z,100793.37
2023-03-29T22:59:27.876Z,100783.44
2023-03-29T23:02:30.884Z,100778.22
2023-03-29T23:05:34.006Z,100778.81
2023-03-29T23:08:37.046Z,100775.03
2023-03-29T23:11:40.118Z,100786.88
2023-03-29T23:14:43.093Z,100787.72
2023-03-29T23:17:48.831Z,100775.03
2023-03-29T23:20:54.966Z,100776.94
2023-03-29T23:24:00.900Z,100772.31
2023-03-29T23:27:05.238Z,100753.44
2023-03-29T23:30:08.990Z,100765.78
2023-03-29T23:33:11.935Z,100763.69
2023-03-29T23:36:17.043Z,100774.94
2023-03-29T23:39:19.792Z,100768.66
2023-03-29T23:42:22.809Z,100775.06
2023-03-29T23:45:29.860Z,100770.78
2023-03-29T23:48:34.619Z,100764.62
2023-03-29T23:51:39.335Z,100761.88
2023-03-29T23:54:42.146Z,100770.09
2023-03-29T23:57:44.979Z,100764.97
